createdAt,value
2023-01-10T00:01:47.005Z,101658.98
2023-01-10T00:04:20.849Z,101670.09
2023-01-10T00:06:55.672Z,101666.66
2023-01-10T00:09:31.444Z,101671.70
2023-01-10T00:12:23.711Z,101672.62
2023-01-10T00:14:57.521Z,101674.89
2023-01-10T00:17:31.514Z,101675.56
2023-01-10T00:20:05.702Z,101668.43
2023-01-10T00:22:40.041Z,101682.98
2023-01-10T00:25:14.396Z,101673.30
2023-01-10T00:27:53.352Z,101671.78
2023-01-10T00:30:29.247Z,101671.88
2023-01-10T00:33:04.443Z,101668.44
2023-01-10T00:35:38.587Z,101673.23
2023-01-10T00:38:13.438Z,101672.29
2023-01-10T00:40:48.007Z,101663.55
2023-01-10T00:43:39.374Z,101667.69
2023-01-10T00:46:13.286Z,101665.26
2023-01-10T00:48:47.604Z,101665.92
2023-01-10T00:51:21.760Z,101665.77
2023-01-10T00:53:56.790Z,101666.33
2023-01-10T00:56:30.736Z,101660.27
2023-01-10T00:59:04.908Z,101665.67
2023-01-10T01:01:40.653Z,101661.28
2023-01-10T01:04:14.833Z,101654.98
2023-01-10T01:06:49.980Z,101656.94
2023-01-10T01:09:24.185Z,101655.08
2023-01-10T01:11:58.020Z,101651.95
2023-01-10T01:14:32.284Z,101658.26
2023-01-10T01:17:06.439Z,101662.73
2023-01-10T01:19:40.681Z,101662.73
2023-01-10T01:22:15.848Z,101659.62
2023-01-10T01:24:49.933Z,101661.27
2023-01-10T01:27:23.559Z,101657.79
2023-01-10T01:29:57.508Z,101654.35
2023-01-10T01:32:31.434Z,101654.35
2023-01-10T01:35:08.009Z,101644.61
2023-01-10T01:37:43.071Z,101655.27
2023-01-10T01:40:19.852Z,101654.22
2023-01-10T01:42:56.137Z,101653.91
2023-01-10T01:45:36.720Z,101650.44
2023-01-10T01:48:40.136Z,101638.77
2023-01-10T01:51:20.955Z,101644.38
2023-01-10T01:54:06.221Z,101643.05
2023-01-10T01:56:52.321Z,101652.39
2023-01-10T01:59:34.093Z,101647.34
2023-01-10T02:02:13.097Z,101650.12
2023-01-10T02:04:51.651Z,101660.72
2023-01-10T02:07:32.587Z,101666.58
2023-01-10T02:10:40.853Z,101662.45
2023-01-10T02:13:17.539Z,101658.66
2023-01-10T02:15:52.281Z,101668.09
2023-01-10T02:18:26.664Z,101667.42
2023-01-10T02:21:25.810Z,101673.04
2023-01-10T02:24:22.576Z,101676.06
2023-01-10T02:27:15.698Z,101676.67
2023-01-10T02:30:24.952Z,101674.14
2023-01-10T02:33:05.342Z,101679.44
2023-01-10T02:35:57.101Z,101670.61
2023-01-10T02:38:50.594Z,101677.52
2023-01-10T02:41:56.277Z,101686.25
2023-01-10T02:44:43.941Z,101683.73
2023-01-10T02:47:18.084Z,101693.16
2023-01-10T02:49:53.739Z,101700.64
2023-01-10T02:52:31.945Z,101706.60
2023-01-10T02:55:06.671Z,101698.72
2023-01-10T02:58:14.038Z,101700.64
2023-01-10T03:01:19.358Z,101713.52
2023-01-10T03:04:15.916Z,101719.16
2023-01-10T03:07:00.001Z,101722.25
2023-01-10T03:10:09.101Z,101722.59
2023-01-10T03:12:55.785Z,101728.91
2023-01-10T03:15:33.652Z,101726.64
2023-01-10T03:18:15.263Z,101719.06
2023-01-10T03:20:50.093Z,101725.02
2023-01-10T03:23:25.178Z,101728.15
2023-01-10T03:26:00.070Z,101726.79
2023-01-10T03:28:46.870Z,101722.34
2023-01-10T03:31:31.844Z,101728.66
2023-01-10T03:34:06.218Z,101737.73
2023-01-10T03:37:02.754Z,101742.54
2023-01-10T03:39:46.953Z,101740.93
2023-01-10T03:42:36.723Z,101736.23
2023-01-10T03:45:13.871Z,101750.42
2023-01-10T03:47:50.047Z,101747.59
2023-01-10T03:50:26.373Z,101756.73
2023-01-10T03:53:01.404Z,101758.70
2023-01-10T03:55:37.563Z,101743.86
2023-01-10T03:58:11.585Z,101744.88
2023-01-10T04:00:45.300Z,101746.58
2023-01-10T04:03:20.396Z,101756.08
2023-01-10T04:05:54.081Z,101757.09
2023-01-10T04:08:27.083Z,101757.53
2023-01-10T04:11:01.350Z,101754.76
2023-01-10T04:13:35.825Z,101761.47
2023-01-10T04:16:09.989Z,101763.39
2023-01-10T04:18:43.806Z,101756.58
2023-01-10T04:21:17.709Z,101753.80
2023-01-10T04:23:50.512Z,101747.24
2023-01-10T04:26:25.958Z,101751.98
2023-01-10T04:28:59.755Z,101744.47
2023-01-10T04:31:33.959Z,101749.61
2023-01-10T04:34:09.936Z,101746.73
2023-01-10T04:36:45.658Z,101743.55
2023-01-10T04:39:19.948Z,101746.73
2023-01-10T04:41:53.630Z,101748.25
2023-01-10T04:44:27.304Z,101750.46
2023-01-10T04:47:01.015Z,101762.13
2023-01-10T04:49:38.116Z,101745.73
2023-01-10T04:52:12.966Z,101743.80
2023-01-10T04:54:46.820Z,101742.55
2023-01-10T04:57:21.934Z,101755.77
2023-01-10T04:59:55.777Z,101741.28
2023-01-10T05:02:28.600Z,101740.68
2023-01-10T05:05:02.984Z,101741.03
2023-01-10T05:07:37.169Z,101740.11
2023-01-10T05:10:12.727Z,101730.11
2023-01-10T05:12:47.652Z,101725.98
2023-01-10T05:15:23.478Z,101731.69
2023-01-10T05:18:03.189Z,101733.05
2023-01-10T05:20:37.182Z,101736.58
2023-01-10T05:23:12.024Z,101740.02
2023-01-10T05:25:46.016Z,101750.11
2023-01-10T05:28:20.619Z,101746.92
2023-01-10T05:30:54.977Z,101762.32
2023-01-10T05:33:29.494Z,101757.88
2023-01-10T05:36:08.639Z,101760.40
2023-01-10T05:38:43.142Z,101760.96
2023-01-10T05:41:17.092Z,101756.52
2023-01-10T05:43:51.399Z,101752.89
2023-01-10T05:46:25.295Z,101755.01
2023-01-10T05:48:59.257Z,101764.41
2023-01-10T05:51:32.929Z,101765.61
2023-01-10T05:54:05.788Z,101777.13
2023-01-10T05:56:39.554Z,101782.33
2023-01-10T05:59:27.292Z,101788.80
2023-01-10T06:01:48.861Z,101793.34
2023-01-10T06:04:22.830Z,101788.48
2023-01-10T06:06:56.968Z,101786.22
2023-01-10T06:09:31.389Z,101803.45
2023-01-10T06:12:05.503Z,101812.89
2023-01-10T06:14:40.670Z,101802.44
2023-01-10T06:17:15.027Z,101806.83
2023-01-10T06:19:49.147Z,101805.16
2023-01-10T06:22:42.637Z,101810.36
2023-01-10T06:25:17.153Z,101808.66
2023-01-10T06:27:51.068Z,101808.09
2023-01-10T06:30:25.891Z,101815.66
2023-01-10T06:33:04.594Z,101821.63
2023-01-10T06:35:38.691Z,101823.49
2023-01-10T06:38:12.359Z,101821.73
2023-01-10T06:40:46.505Z,101814.30
2023-01-10T06:43:22.175Z,101815.22
2023-01-10T06:45:55.976Z,101805.62
2023-01-10T06:48:30.620Z,101810.51
2023-01-10T06:51:05.678Z,101815.37
2023-01-10T06:53:40.420Z,101827.48
2023-01-10T06:56:15.069Z,101821.92
2023-01-10T06:58:50.932Z,101817.38
2023-01-10T07:01:25.336Z,101826.66
2023-01-10T07:03:59.661Z,101818.28
2023-01-10T07:06:36.292Z,101814.32
2023-01-10T07:09:10.934Z,101822.75
2023-01-10T07:11:44.522Z,101831.40
2023-01-10T07:14:18.302Z,101827.59
2023-01-10T07:16:52.061Z,101830.97
2023-01-10T07:19:25.045Z,101834.91
2023-01-10T07:21:58.698Z,101836.67
2023-01-10T07:24:31.600Z,101844.09
2023-01-10T07:27:05.441Z,101839.08
2023-01-10T07:29:39.507Z,101859.64
2023-01-10T07:32:13.746Z,101861.64
2023-01-10T07:34:47.823Z,101860.36
2023-01-10T07:37:21.557Z,101860.36
2023-01-10T07:39:55.284Z,101865.77
2023-01-10T07:42:29.075Z,101859.84
2023-01-10T07:45:02.915Z,101864.37
2023-01-10T07:47:36.751Z,101852.05
2023-01-10T07:50:10.829Z,101861.08
2023-01-10T07:52:44.860Z,101856.44
2023-01-10T07:55:18.746Z,101847.72
2023-01-10T07:57:53.371Z,101847.05
2023-01-10T08:00:27.280Z,101846.03
2023-01-10T08:03:01.482Z,101842.93
2023-01-10T08:05:37.582Z,101836.06
2023-01-10T08:08:14.399Z,101842.81
2023-01-10T08:10:48.151Z,101843.09
2023-01-10T08:13:22.121Z,101854.86
2023-01-10T08:15:55.999Z,101846.41
2023-01-10T08:18:30.535Z,101861.39
2023-01-10T08:21:04.333Z,101852.71
2023-01-10T08:23:38.305Z,101852.71
2023-01-10T08:26:12.135Z,101855.38
2023-01-10T08:28:45.945Z,101854.05
2023-01-10T08:31:19.731Z,101848.45
2023-01-10T08:33:53.682Z,101847.10
2023-01-10T08:36:30.278Z,101853.67
2023-01-10T08:39:04.350Z,101849.77
2023-01-10T08:41:38.873Z,101846.45
2023-01-10T08:44:13.643Z,101850.61
2023-01-10T08:46:47.295Z,101845.23
2023-01-10T08:49:20.938Z,101839.52
2023-01-10T08:51:54.941Z,101843.92
2023-01-10T08:54:28.999Z,101844.88
2023-01-10T08:57:02.750Z,101832.48
2023-01-10T08:59:37.009Z,101830.10
2023-01-10T09:02:17.061Z,101829.78
2023-01-10T09:04:52.483Z,101827.13
2023-01-10T09:07:30.535Z,101818.72
2023-01-10T09:10:08.016Z,101832.12
2023-01-10T09:12:49.985Z,101840.91
2023-01-10T09:15:41.477Z,101846.58
2023-01-10T09:18:16.529Z,101838.61
2023-01-10T09:24:23.194Z,101835.41
2023-01-10T09:27:00.669Z,101835.77
2023-01-10T09:29:37.431Z,101837.27
2023-01-10T09:32:14.803Z,101833.47
2023-01-10T09:34:52.287Z,101850.87
2023-01-10T09:37:43.764Z,101824.77
2023-01-10T09:40:23.213Z,101827.63
2023-01-10T09:43:11.447Z,101836.31
2023-01-10T09:46:10.253Z,101831.45
2023-01-10T09:52:34.321Z,101826.95
2023-01-10T09:55:21.132Z,101821.33
2023-01-10T10:01:27.154Z,101814.03
2023-01-10T10:04:23.441Z,101811.49
2023-01-10T10:07:02.183Z,101808.88
2023-01-10T10:09:37.532Z,101797.69
2023-01-10T10:12:52.175Z,101803.99
2023-01-10T10:16:04.689Z,101797.20
2023-01-10T10:18:55.281Z,101797.58
2023-01-10T10:22:07.817Z,101782.44
2023-01-10T10:25:32.165Z,101783.03
2023-01-10T10:28:37.322Z,101771.73
2023-01-10T10:31:54.753Z,101768.81
2023-01-10T10:34:55.901Z,101770.41
2023-01-10T10:37:37.725Z,101773.56
2023-01-10T10:40:29.235Z,101773.77
2023-01-10T10:43:09.127Z,101775.63
2023-01-10T10:45:52.469Z,101767.42
2023-01-10T10:48:36.171Z,101774.09
2023-01-10T10:51:38.975Z,101773.30
2023-01-10T10:54:15.838Z,101775.38
2023-01-10T10:56:54.425Z,101766.38
2023-01-10T10:59:31.998Z,101754.58
2023-01-10T11:02:29.861Z,101752.83
2023-01-10T11:05:14.080Z,101743.48
2023-01-10T11:07:48.541Z,101752.60
2023-01-10T11:10:41.630Z,101761.00
2023-01-10T11:13:38.957Z,101757.88
2023-01-10T11:16:27.223Z,101763.19
2023-01-10T11:19:27.223Z,101757.88
2023-01-10T11:22:07.192Z,101757.20
2023-01-10T11:24:46.266Z,101766.52
2023-01-10T11:27:40.122Z,101771.47
2023-01-10T11:30:33.654Z,101774.67
2023-01-10T11:47:30.005Z,101761.56
2023-01-10T11:50:04.264Z,101765.84
2023-01-10T11:52:37.840Z,101768.77
2023-01-10T11:55:11.279Z,101766.94
2023-01-10T11:57:44.453Z,101762.69
2023-01-10T12:00:19.159Z,101764.30
2023-01-10T12:02:52.997Z,101760.97
2023-01-10T12:05:25.199Z,101763.86
2023-01-10T12:08:07.025Z,101759.84
2023-01-10T12:10:40.696Z,101759.72
2023-01-10T12:13:18.180Z,101765.98
2023-01-10T12:15:51.414Z,101766.73
2023-01-10T12:18:25.156Z,101777.16
2023-01-10T12:20:58.118Z,101778.16
2023-01-10T12:23:31.694Z,101777.70
2023-01-10T12:26:11.781Z,101782.53
2023-01-10T12:28:52.263Z,101773.66
2023-01-10T12:31:25.618Z,101778.49
2023-01-10T12:34:15.166Z,101775.36
2023-01-10T12:37:27.552Z,101779.88
2023-01-10T12:40:08.219Z,101786.31
2023-01-10T12:43:12.484Z,101795.54
2023-01-10T12:45:59.609Z,101799.46
2023-01-10T12:48:59.878Z,101806.05
2023-01-10T12:51:33.344Z,101816.63
2023-01-10T12:54:10.280Z,101807.39
2023-01-10T12:56:44.112Z,101817.66
2023-01-10T12:59:41.307Z,101813.02
2023-01-10T13:02:24.204Z,101823.96
2023-01-10T13:05:00.313Z,101842.27
2023-01-10T13:07:35.737Z,101829.10
2023-01-10T13:10:10.858Z,101840.34
2023-01-10T13:12:48.797Z,101840.41
2023-01-10T13:15:42.198Z,101840.84
2023-01-10T13:18:21.479Z,101832.88
2023-01-10T13:21:09.156Z,101836.63
2023-01-10T13:23:52.824Z,101845.23
2023-01-10T13:26:26.849Z,101846.56
2023-01-10T13:29:04.069Z,101848.56
2023-01-10T13:31:38.284Z,101847.37
2023-01-10T13:34:17.081Z,101843.63
2023-01-10T13:36:56.681Z,101840.80
2023-01-10T13:39:34.081Z,101854.88
2023-01-10T13:42:30.039Z,101860.58
2023-01-10T13:45:10.071Z,101865.33
2023-01-10T13:47:48.819Z,101869.77
2023-01-10T13:50:31.857Z,101870.39
2023-01-10T13:53:15.010Z,101870.92
2023-01-10T13:55:57.742Z,101868.67
2023-01-10T13:59:00.459Z,101872.63
2023-01-10T14:01:59.043Z,101862.79
2023-01-10T14:04:52.267Z,101867.35
2023-01-10T14:07:29.772Z,101870.64
2023-01-10T14:10:10.895Z,101872.18
2023-01-10T14:13:04.383Z,101867.89
2023-01-10T14:15:46.051Z,101870.37
2023-01-10T14:18:33.907Z,101868.42
2023-01-10T14:21:10.563Z,101870.30
2023-01-10T14:23:47.810Z,101871.98
2023-01-10T14:26:35.764Z,101871.17
2023-01-10T14:29:14.130Z,101878.16
2023-01-10T14:31:50.400Z,101871.43
2023-01-10T14:34:35.836Z,101875.13
2023-01-10T14:37:19.865Z,101879.44
2023-01-10T14:39:55.624Z,101868.50
2023-01-10T14:42:30.552Z,101870.78
2023-01-10T14:45:11.961Z,101869.52
2023-01-10T14:47:48.457Z,101863.71
2023-01-10T14:50:30.013Z,101872.66
2023-01-10T14:53:03.830Z,101863.20
2023-01-10T14:55:43.012Z,101876.25
2023-01-10T14:58:19.068Z,101883.02
2023-01-10T15:00:56.462Z,101872.72
2023-01-10T15:03:30.514Z,101864.89
2023-01-10T15:06:04.126Z,101861.54
2023-01-10T15:08:37.147Z,101866.69
2023-01-10T15:11:12.959Z,101867.45
2023-01-10T15:13:57.428Z,101864.41
2023-01-10T15:16:32.312Z,101870.88
2023-01-10T15:19:06.921Z,101857.84
2023-01-10T15:21:46.841Z,101858.60
2023-01-10T15:24:36.222Z,101853.04
2023-01-10T15:27:15.845Z,101853.45
2023-01-10T15:29:49.688Z,101856.48
2023-01-10T15:32:30.227Z,101853.79
2023-01-10T15:35:04.663Z,101863.98
2023-01-10T15:37:42.017Z,101858.68
2023-01-10T15:40:25.670Z,101851.61
2023-01-10T15:43:25.788Z,101865.14
2023-01-10T15:46:01.473Z,101857.66
2023-01-10T15:48:44.554Z,101862.20
2023-01-10T15:51:26.222Z,101866.73
2023-01-10T15:54:25.333Z,101873.39
2023-01-10T15:57:04.760Z,101866.88
2023-01-10T15:59:45.117Z,101868.08
2023-01-10T16:02:25.405Z,101875.70
2023-01-10T16:05:12.582Z,101870.18
2023-01-10T16:07:48.102Z,101868.05
2023-01-10T16:10:27.723Z,101866.88
2023-01-10T16:13:27.896Z,101871.33
2023-01-10T16:16:05.393Z,101866.54
2023-01-10T16:18:39.269Z,101871.94
2023-01-10T16:21:13.836Z,101878.30
2023-01-10T16:23:47.458Z,101863.59
2023-01-10T16:26:22.513Z,101867.78
2023-01-10T16:28:56.823Z,101865.78
2023-01-10T16:31:30.603Z,101879.40
2023-01-10T16:34:04.407Z,101877.63
2023-01-10T16:36:38.898Z,101878.45
2023-01-10T16:39:21.592Z,101870.46
2023-01-10T16:42:13.491Z,101883.47
2023-01-10T16:44:47.292Z,101879.52
2023-01-10T16:47:20.988Z,101872.34
2023-01-10T16:49:54.657Z,101881.27
2023-01-10T16:52:28.349Z,101874.04
2023-01-10T16:55:03.404Z,101876.61
2023-01-10T16:57:37.257Z,101890.31
2023-01-10T17:00:12.458Z,101893.58
2023-01-10T17:02:46.298Z,101889.80
2023-01-10T17:05:20.250Z,101895.44
2023-01-10T17:07:54.489Z,101908.31
2023-01-10T17:10:28.598Z,101903.27
2023-01-10T17:13:04.626Z,101911.83
2023-01-10T17:15:39.859Z,101922.57
2023-01-10T17:18:13.779Z,101930.14
2023-01-10T17:20:47.657Z,101927.35
2023-01-10T17:23:21.433Z,101938.09
2023-01-10T17:26:04.254Z,101932.14
2023-01-10T17:28:39.115Z,101939.09
2023-01-10T17:31:12.878Z,101937.00
2023-01-10T17:33:46.772Z,101937.92
2023-01-10T17:36:22.817Z,101931.87
2023-01-10T17:38:59.778Z,101939.44
2023-01-10T17:41:33.951Z,101940.78
2023-01-10T17:44:07.951Z,101928.83
2023-01-10T17:46:42.132Z,101923.88
2023-01-10T17:49:15.819Z,101917.70
2023-01-10T17:51:49.704Z,101910.36
2023-01-10T17:54:24.140Z,101907.05
2023-01-10T17:56:58.052Z,101905.00
2023-01-10T17:59:31.981Z,101907.34
2023-01-10T18:02:06.226Z,101921.20
2023-01-10T18:04:40.673Z,101922.20
2023-01-10T18:07:15.027Z,101924.72
2023-01-10T18:09:48.977Z,101923.81
2023-01-10T18:12:22.889Z,101923.46
2023-01-10T18:14:56.997Z,101923.81
2023-01-10T18:17:31.065Z,101909.42
2023-01-10T18:20:05.227Z,101916.72
2023-01-10T18:22:58.791Z,101918.33
2023-01-10T18:25:32.581Z,101923.41
2023-01-10T18:28:06.496Z,101923.83
2023-01-10T18:30:41.290Z,101925.09
2023-01-10T18:33:14.168Z,101921.31
2023-01-10T18:35:49.123Z,101924.41
2023-01-10T18:38:23.079Z,101922.63
2023-01-10T18:40:56.820Z,101925.22
2023-01-10T18:43:31.720Z,101920.18
2023-01-10T18:46:10.699Z,101911.09
2023-01-10T18:48:45.342Z,101919.58
2023-01-10T18:51:19.409Z,101913.02
2023-01-10T18:53:54.263Z,101909.66
2023-01-10T18:56:28.236Z,101912.25
2023-01-10T18:59:02.262Z,101912.91
2023-01-10T19:01:37.141Z,101909.47
2023-01-10T19:04:11.826Z,101913.56
2023-01-10T19:06:45.692Z,101913.64
2023-01-10T19:09:20.198Z,101912.38
2023-01-10T19:11:54.000Z,101913.03
2023-01-10T19:14:28.319Z,101915.55
2023-01-10T19:17:02.324Z,101921.85
2023-01-10T19:19:36.785Z,101916.55
2023-01-10T19:22:10.526Z,101913.11
2023-01-10T19:24:44.350Z,101912.50
2023-01-10T19:27:18.774Z,101919.80
2023-01-10T19:29:52.902Z,101916.70
2023-01-10T19:32:27.666Z,101916.70
2023-01-10T19:35:01.681Z,101920.75
2023-01-10T19:37:35.711Z,101933.34
2023-01-10T19:40:12.574Z,101929.22
2023-01-10T19:42:46.524Z,101922.01
2023-01-10T19:45:20.430Z,101921.41
2023-01-10T19:47:54.438Z,101917.63
2023-01-10T19:50:28.232Z,101932.39
2023-01-10T19:53:02.161Z,101920.48
2023-01-10T19:55:36.088Z,101910.80
2023-01-10T19:58:09.884Z,101907.94
2023-01-10T20:00:43.543Z,101901.37
2023-01-10T20:03:17.552Z,101898.20
2023-01-10T20:05:51.357Z,101898.20
2023-01-10T20:08:25.118Z,101888.13
2023-01-10T20:11:05.498Z,101889.12
2023-01-10T20:13:43.934Z,101895.42
2023-01-10T20:16:24.158Z,101894.77
2023-01-10T20:18:57.998Z,101897.59
2023-01-10T20:21:31.699Z,101899.55
2023-01-10T20:24:17.616Z,101896.34
2023-01-10T20:26:52.380Z,101903.05
2023-01-10T20:29:26.273Z,101884.43
2023-01-10T20:32:01.425Z,101886.61
2023-01-10T20:34:35.733Z,101896.95
2023-01-10T20:37:10.341Z,101902.25
2023-01-10T20:39:44.599Z,101895.03
2023-01-10T20:42:18.494Z,101893.95
2023-01-10T20:44:52.621Z,101886.41
2023-01-10T20:47:27.182Z,101883.49
2023-01-10T20:50:00.938Z,101889.84
2023-01-10T20:52:35.024Z,101873.46
2023-01-10T20:55:08.174Z,101869.69
2023-01-10T20:57:41.908Z,101861.81
2023-01-10T21:00:18.126Z,101857.69
2023-01-10T21:02:51.988Z,101865.59
2023-01-10T21:05:25.891Z,101868.11
2023-01-10T21:07:59.814Z,101856.78
2023-01-10T21:10:34.097Z,101861.73
2023-01-10T21:13:08.512Z,101854.17
2023-01-10T21:15:44.418Z,101864.86
2023-01-10T21:18:22.288Z,101862.34
2023-01-10T21:20:58.017Z,101863.26
2023-01-10T21:23:33.274Z,101863.60
2023-01-10T21:26:11.333Z,101858.48
2023-01-10T21:28:47.637Z,101863.26
2023-01-10T21:31:23.492Z,101868.64
2023-01-10T21:33:57.278Z,101865.25
2023-01-10T21:36:31.287Z,101868.11
2023-01-10T21:39:04.979Z,101857.09
2023-01-10T21:41:56.928Z,101851.48
2023-01-10T21:44:30.560Z,101855.83
2023-01-10T21:47:04.494Z,101854.17
2023-01-10T21:49:39.006Z,101859.22
2023-01-10T21:52:12.859Z,101843.45
2023-01-10T21:54:46.752Z,101847.80
2023-01-10T21:57:22.579Z,101841.23
2023-01-10T21:59:56.697Z,101845.09
2023-01-10T22:02:31.227Z,101842.92
2023-01-10T22:05:05.058Z,101853.91
2023-01-10T22:07:39.145Z,101855.17
2023-01-10T22:10:13.808Z,101846.63
2023-01-10T22:12:47.588Z,101838.67
2023-01-10T22:15:21.819Z,101826.99
2023-01-10T22:17:55.596Z,101832.64
2023-01-10T22:20:29.660Z,101821.87
2023-01-10T22:23:03.476Z,101826.25
2023-01-10T22:25:37.275Z,101818.05
2023-01-10T22:28:09.932Z,101813.23
2023-01-10T22:30:43.804Z,101826.05
2023-01-10T22:33:17.499Z,101826.61
2023-01-10T22:35:52.051Z,101835.38
2023-01-10T22:38:26.217Z,101835.69
2023-01-10T22:41:08.956Z,101827.22
2023-01-10T22:43:42.843Z,101818.14
2023-01-10T22:46:17.391Z,101824.09
2023-01-10T22:48:51.102Z,101816.22
2023-01-10T22:51:26.275Z,101822.35
2023-01-10T22:53:59.941Z,101825.83
2023-01-10T22:56:34.091Z,101813.23
2023-01-10T22:59:08.538Z,101829.34
2023-01-10T23:01:42.656Z,101812.36
2023-01-10T23:04:18.245Z,101816.87
2023-01-10T23:06:52.647Z,101806.54
2023-01-10T23:09:26.640Z,101810.14
2023-01-10T23:12:00.532Z,101815.83
2023-01-10T23:14:34.282Z,101817.78
2023-01-10T23:17:08.510Z,101822.22
2023-01-10T23:19:42.284Z,101822.87
2023-01-10T23:22:14.979Z,101817.27
2023-01-10T23:24:48.488Z,101819.44
2023-01-10T23:27:21.387Z,101816.05
2023-01-10T23:29:54.866Z,101808.84
2023-01-10T23:32:29.729Z,101809.18
2023-01-10T23:35:03.873Z,101815.78
2023-01-10T23:37:37.660Z,101807.92
2023-01-10T23:40:13.943Z,101819.52
2023-01-10T23:42:47.719Z,101804.06
2023-01-10T23:45:20.443Z,101806.23
2023-01-10T23:47:54.601Z,101811.96
2023-01-10T23:50:28.591Z,101813.53
2023-01-10T23:53:01.658Z,101819.17
2023-01-10T23:55:36.131Z,101811.62
2023-01-10T23:58:09.860Z,101830.16
